Time;durP1;ratioP1;P1;durP2;ratioP2;P2;SDS_P1;SDS_P2;PMS_P1;PMS_P2;Temp;Humidity;BMP_temperature;BMP_pressure;BME280_temperature;BME280_humidity;BME280_pressure;Samples;Min_cycle;Max_cycle;Signal;HPM_P1;HPM_P2
2022/06/18 00:00:19;;;;;;;6.08;2.50;;;25.40;92.00;;;;;;1897931;75;21148;-91
2022/06/18 00:03:13;;;;;;;6.40;2.33;;;25.50;92.00;;;;;;1885894;75;21122;-91
2022/06/18 00:06:04;;;;;;;2.70;1.98;;;25.50;91.70;;;;;;1879264;75;21323;-90
2022/06/18 00:08:57;;;;;;;3.15;2.08;;;25.40;91.40;;;;;;1901467;75;21079;-91
2022/06/18 00:15:08;;;;;;;2.83;2.22;;;25.10;91.40;;;;;;1886375;75;21116;-91
2022/06/18 00:18:00;;;;;;;3.65;2.30;;;25.00;91.70;;;;;;1892228;75;21072;-91
2022/06/18 00:20:51;;;;;;;3.45;2.60;;;24.90;91.80;;;;;;1897783;75;21170;-91
2022/06/18 00:23:43;;;;;;;4.60;2.15;;;24.90;92.10;;;;;;1897124;75;21094;-91
2022/06/18 00:26:35;;;;;;;3.22;2.00;;;24.90;92.10;;;;;;1891041;75;21120;-91
2022/06/18 00:29:26;;;;;;;3.83;2.42;;;24.80;92.60;;;;;;1853741;75;21141;-92
2022/06/18 00:32:38;;;;;;;3.95;2.60;;;24.80;93.10;;;;;;1895373;75;21212;-91
2022/06/18 00:35:30;;;;;;;4.53;2.60;;;24.80;92.90;;;;;;1899101;75;21694;-91
2022/06/18 00:41:05;;;;;;;5.53;2.27;;;24.70;94.10;;;;;;1948497;72;22127;-90
2022/06/18 00:44:29;;;;;;;3.17;2.40;;;24.80;94.30;;;;;;1918876;73;21215;-91
2022/06/18 00:47:43;;;;;;;4.45;2.65;;;24.80;94.40;;;;;;1917075;75;21035;-90
2022/06/18 00:50:37;;;;;;;4.25;2.85;;;24.90;94.90;;;;;;1917577;73;21151;-90
2022/06/18 00:53:51;;;;;;;6.67;2.52;;;24.90;95.10;;;;;;1918668;73;21163;-91
2022/06/18 00:56:46;;;;;;;4.12;2.80;;;24.90;95.70;;;;;;1916517;73;21147;-90
2022/06/18 00:59:41;;;;;;;2.83;2.35;;;25.00;95.70;;;;;;1922166;73;21124;-90
2022/06/18 01:02:36;;;;;;;3.33;2.20;;;24.90;95.70;;;;;;1918363;73;21100;-90
2022/06/18 01:05:31;;;;;;;7.10;3.20;;;24.90;95.90;;;;;;1917362;75;21758;-90
2022/06/18 01:08:24;;;;;;;3.55;2.85;;;24.90;96.00;;;;;;1917078;73;21197;-90
2022/06/18 01:11:19;;;;;;;3.90;2.72;;;24.90;96.30;;;;;;1918727;73;21173;-90
2022/06/18 01:14:14;;;;;;;3.52;2.65;;;24.90;96.80;;;;;;1919496;73;21102;-89
2022/06/18 01:17:07;;;;;;;3.75;2.87;;;24.90;97.00;;;;;;1917032;73;21082;-90
2022/06/18 01:20:00;;;;;;;4.92;2.58;;;24.90;97.20;;;;;;1916986;75;21163;-90
2022/06/18 01:23:03;;;;;;;3.58;2.80;;;24.90;97.30;;;;;;1923911;73;21114;-90
2022/06/18 01:25:55;;;;;;;4.33;2.60;;;24.90;97.30;;;;;;1915708;73;21133;-89
2022/06/18 01:28:47;;;;;;;4.22;2.47;;;24.90;97.40;;;;;;1922167;73;21165;-90
2022/06/18 01:31:40;;;;;;;3.08;2.20;;;24.90;97.20;;;;;;1918911;73;21158;-90
2022/06/18 01:34:38;;;;;;;5.92;2.80;;;24.90;96.70;;;;;;1918031;73;21096;-90
2022/06/18 01:37:31;;;;;;;4.30;2.40;;;24.90;96.80;;;;;;1917658;73;21201;-89
2022/06/18 01:40:29;;;;;;;3.27;2.30;;;25.00;96.80;;;;;;1918380;73;21183;-89
2022/06/18 01:43:23;;;;;;;4.62;2.50;;;24.90;96.80;;;;;;1909647;74;21211;-90
2022/06/18 01:46:15;;;;;;;4.92;2.25;;;24.90;97.10;;;;;;1921515;74;21147;-90
2022/06/18 01:49:10;;;;;;;4.25;2.25;;;24.90;97.50;;;;;;1830010;77;21081;-90
2022/06/18 01:52:04;;;;;;;4.35;2.47;;;24.80;97.80;;;;;;1904454;75;21117;-90
2022/06/18 01:55:00;;;;;;;5.50;2.92;;;24.70;98.10;;;;;;1899106;75;21094;-90
2022/06/18 01:57:55;;;;;;;3.22;2.87;;;24.60;98.30;;;;;;1909550;75;21137;-90
2022/06/18 02:00:50;;;;;;;7.78;2.70;;;24.70;98.80;;;;;;1905659;75;21495;-90
2022/06/18 02:03:42;;;;;;;3.60;2.58;;;24.60;99.30;;;;;;1907245;75;21095;-90
2022/06/18 02:06:37;;;;;;;4.90;2.55;;;24.60;99.80;;;;;;1911553;75;21185;-90
2022/06/18 02:09:37;;;;;;;7.78;2.67;;;24.60;99.90;;;;;;1908765;75;21176;-90
2022/06/18 02:12:31;;;;;;;3.92;2.60;;;24.50;99.90;;;;;;1905098;75;21352;-90
2022/06/18 02:15:26;;;;;;;3.85;2.37;;;24.50;99.90;;;;;;1908944;75;21196;-90
2022/06/18 02:18:20;;;;;;;2.62;2.27;;;24.50;99.90;;;;;;1905507;75;21155;-90
2022/06/18 02:21:16;;;;;;;5.10;2.90;;;24.40;99.90;;;;;;1907763;75;21071;-90
2022/06/18 02:24:08;;;;;;;4.47;2.72;;;24.30;99.90;;;;;;1903625;75;21131;-90
2022/06/18 02:27:00;;;;;;;3.52;2.58;;;24.30;99.90;;;;;;1909568;75;21101;-90
2022/06/18 02:29:53;;;;;;;4.20;2.70;;;24.20;99.90;;;;;;1912648;75;21228;-90
2022/06/18 02:32:49;;;;;;;4.17;2.50;;;24.20;99.90;;;;;;1910619;75;21856;-90
2022/06/18 02:35:41;;;;;;;4.05;2.33;;;24.20;99.90;;;;;;1900637;75;21056;-91
2022/06/18 02:38:33;;;;;;;4.12;2.80;;;24.30;99.90;;;;;;1909828;75;21616;-90
2022/06/18 02:41:25;;;;;;;4.70;2.87;;;24.20;99.90;;;;;;1913827;73;21071;-91
2022/06/18 02:44:17;;;;;;;3.58;2.45;;;24.30;99.90;;;;;;1910819;73;21158;-91
2022/06/18 02:47:11;;;;;;;6.12;2.70;;;24.20;99.90;;;;;;1921244;73;21132;-90
2022/06/18 02:50:06;;;;;;;6.47;3.10;;;24.10;99.90;;;;;;1928558;73;21145;-91
2022/06/18 02:53:02;;;;;;;6.08;2.85;;;24.10;99.90;;;;;;1915356;73;21121;-90
2022/06/18 02:55:57;;;;;;;3.35;2.42;;;24.10;99.90;;;;;;1924282;73;21132;-91
2022/06/18 02:58:50;;;;;;;5.78;2.70;;;24.10;99.90;;;;;;1838152;76;21185;-90
2022/06/18 03:01:41;;;;;;;8.93;4.95;;;24.20;99.90;;;;;;1937137;73;21098;-91
2022/06/18 03:04:33;;;;;;;21.05;16.62;;;24.10;99.90;;;;;;1917365;73;21123;-91
2022/06/18 03:07:24;;;;;;;26.40;20.68;;;24.10;99.90;;;;;;1880695;75;21063;-90
2022/06/18 03:13:34;;;;;;;19.32;15.75;;;24.10;99.90;;;;;;1841655;76;21120;-89
2022/06/18 03:16:28;;;;;;;18.73;13.13;;;24.20;99.90;;;;;;1862629;76;21100;-90
2022/06/18 03:19:26;;;;;;;14.68;10.08;;;24.10;99.90;;;;;;1916329;73;21203;-91
2022/06/18 03:22:20;;;;;;;9.88;6.42;;;24.00;99.90;;;;;;1922529;73;21223;-90
2022/06/18 03:25:13;;;;;;;10.55;7.12;;;23.90;99.90;;;;;;1925385;73;21188;-90
2022/06/18 03:28:06;;;;;;;9.63;7.55;;;23.90;99.90;;;;;;1927902;73;21039;-91
2022/06/18 03:30:57;;;;;;;8.93;6.10;;;23.90;99.90;;;;;;1922114;73;21160;-91
2022/06/18 03:33:50;;;;;;;8.03;4.87;;;23.90;99.90;;;;;;1916605;73;21166;-90
2022/06/18 03:36:41;;;;;;;7.00;4.83;;;23.90;99.90;;;;;;1915634;73;21056;-90
2022/06/18 03:39:33;;;;;;;6.67;4.35;;;23.80;99.90;;;;;;1913902;73;21128;-91
2022/06/18 03:42:24;;;;;;;8.98;4.60;;;23.80;99.90;;;;;;1922717;73;21185;-90
2022/06/18 03:45:16;;;;;;;4.95;3.47;;;23.80;99.90;;;;;;1921984;73;21151;-91
2022/06/18 03:48:10;;;;;;;5.53;3.67;;;23.70;99.90;;;;;;1923481;73;21213;-91
2022/06/18 03:51:02;;;;;;;5.60;3.50;;;23.70;99.90;;;;;;1922795;73;21047;-91
2022/06/18 03:53:57;;;;;;;4.67;3.20;;;23.70;99.90;;;;;;1921939;73;21074;-90
2022/06/18 03:56:51;;;;;;;5.25;3.52;;;23.70;99.90;;;;;;1919803;73;21098;-90
2022/06/18 03:59:43;;;;;;;4.53;3.10;;;23.70;99.90;;;;;;1922707;73;21052;-82
2022/06/18 04:02:35;;;;;;;4.67;2.98;;;23.70;99.90;;;;;;1916451;73;21721;-82
2022/06/18 04:05:27;;;;;;;7.95;2.70;;;23.70;99.90;;;;;;1923117;73;21156;-82
2022/06/18 04:08:20;;;;;;;5.00;2.60;;;23.70;99.90;;;;;;1922859;73;21146;-81
2022/06/18 04:11:13;;;;;;;4.55;2.65;;;23.70;99.90;;;;;;1925043;73;21143;-81
2022/06/18 04:14:05;;;;;;;3.35;2.70;;;23.70;99.90;;;;;;1923232;73;21161;-81
2022/06/18 04:17:05;;;;;;;4.65;3.22;;;23.70;99.90;;;;;;1926120;73;21176;-86
2022/06/18 04:19:56;;;;;;;4.60;2.50;;;23.80;99.90;;;;;;1928115;73;21071;-89
2022/06/18 04:22:48;;;;;;;5.45;3.08;;;23.90;99.90;;;;;;1926052;73;21161;-87
2022/06/18 04:25:41;;;;;;;5.80;3.30;;;23.80;99.90;;;;;;1922313;73;21185;-88
2022/06/18 04:28:33;;;;;;;4.72;2.60;;;23.70;99.90;;;;;;1925621;73;21032;-88
2022/06/18 04:31:28;;;;;;;4.37;2.52;;;23.60;99.90;;;;;;1923646;73;21091;-88
2022/06/18 04:34:21;;;;;;;5.05;2.42;;;23.60;99.90;;;;;;1917398;73;21103;-88
2022/06/18 04:37:24;;;;;;;5.45;2.52;;;23.60;99.90;;;;;;1877343;75;21729;-88
2022/06/18 04:40:32;;;;;;;5.75;2.45;;;23.70;99.90;;;;;;1894619;73;21512;-88
2022/06/18 04:43:33;;;;;;;3.02;2.37;;;23.70;99.90;;;;;;1909742;73;21108;-89
2022/06/18 04:46:24;;;;;;;4.53;2.58;;;23.60;99.90;;;;;;1907242;74;21149;-88
2022/06/18 04:49:17;;;;;;;3.00;2.70;;;23.60;99.90;;;;;;1917602;73;21896;-84
2022/06/18 04:52:10;;;;;;;4.92;2.25;;;23.60;99.90;;;;;;1904496;74;21057;-88
2022/06/18 04:55:05;;;;;;;4.97;2.72;;;23.70;99.90;;;;;;1924140;73;21092;-88
2022/06/18 04:57:56;;;;;;;5.62;3.22;;;23.60;99.90;;;;;;1917766;73;21106;-89
2022/06/18 05:00:48;;;;;;;7.30;2.72;;;23.60;99.90;;;;;;1917249;73;21160;-88
2022/06/18 05:03:41;;;;;;;5.00;2.92;;;23.80;99.90;;;;;;1918592;73;21140;-88
2022/06/18 05:06:37;;;;;;;5.28;3.00;;;23.80;99.90;;;;;;1897547;73;21055;-85
2022/06/18 05:09:36;;;;;;;4.22;2.70;;;23.90;99.90;;;;;;1908470;74;21111;-84
2022/06/18 05:12:32;;;;;;;9.83;3.02;;;23.90;99.90;;;;;;1917382;74;21110;-84
2022/06/18 05:15:45;;;;;;;4.37;2.65;;;23.90;99.90;;;;;;1882237;74;21150;-84
2022/06/18 05:18:40;;;;;;;4.83;3.08;;;23.90;99.90;;;;;;1907213;74;21126;-83
2022/06/18 05:21:31;;;;;;;10.00;3.52;;;23.90;99.90;;;;;;1917041;73;21098;-82
2022/06/18 05:24:22;;;;;;;5.87;3.08;;;24.00;99.90;;;;;;1909024;74;21189;-82
2022/06/18 05:27:19;;;;;;;6.45;3.12;;;24.00;99.90;;;;;;1915175;73;21151;-83
2022/06/18 05:30:14;;;;;;;6.08;3.08;;;23.90;99.90;;;;;;1913350;74;21089;-82
2022/06/18 05:33:08;;;;;;;5.10;2.80;;;24.00;99.90;;;;;;1917758;73;21109;-83
2022/06/18 05:36:01;;;;;;;4.17;2.70;;;24.10;99.90;;;;;;1904473;75;21160;-82
2022/06/18 05:38:53;;;;;;;4.20;2.87;;;24.20;99.90;;;;;;1904270;74;21267;-82
2022/06/18 05:41:44;;;;;;;4.90;3.08;;;24.20;99.90;;;;;;1910102;74;21722;-82
2022/06/18 05:44:37;;;;;;;7.15;3.17;;;24.30;99.90;;;;;;1903989;74;21124;-83
2022/06/18 05:47:31;;;;;;;4.87;3.00;;;24.30;99.90;;;;;;1922888;73;21113;-82
2022/06/18 05:50:23;;;;;;;5.03;2.80;;;24.30;99.90;;;;;;1905098;74;21110;-83
2022/06/18 05:53:14;;;;;;;3.10;2.80;;;24.20;99.90;;;;;;1904647;74;21615;-84
2022/06/18 05:56:20;;;;;;;4.10;2.75;;;24.20;99.90;;;;;;1885213;74;21196;-83
2022/06/18 05:59:14;;;;;;;6.70;3.02;;;24.30;99.90;;;;;;1905077;73;21477;-83
2022/06/18 06:02:07;;;;;;;5.80;3.02;;;24.30;99.90;;;;;;1917316;73;21040;-83
2022/06/18 06:04:58;;;;;;;5.17;3.20;;;24.30;99.90;;;;;;1905536;74;21108;-81
2022/06/18 06:07:50;;;;;;;5.67;3.10;;;24.30;99.90;;;;;;1921597;73;21163;-81
2022/06/18 06:13:51;;;;;;;6.35;3.35;;;24.50;99.90;;;;;;1908827;74;21127;-81
2022/06/18 06:20:34;;;;;;;6.92;3.40;;;24.60;99.90;;;;;;1888733;74;21174;-80
2022/06/18 06:23:25;;;;;;;5.45;3.40;;;24.60;99.90;;;;;;1872722;75;21685;-80
2022/06/18 06:26:21;;;;;;;5.10;3.15;;;24.80;99.90;;;;;;1873857;75;21158;-80
2022/06/18 06:31:52;;;;;;;4.00;3.10;;;25.00;99.90;;;;;;1915867;72;22349;-80
2022/06/18 06:35:02;;;;;;;5.62;3.60;;;25.10;99.90;;;;;;1885176;75;21139;-80
2022/06/18 06:38:14;;;;;;;5.92;3.33;;;25.10;99.90;;;;;;1883661;75;21146;-80
2022/06/18 06:41:05;;;;;;;5.28;3.35;;;25.20;99.90;;;;;;1895030;75;21049;-80
2022/06/18 06:44:15;;;;;;;4.33;3.25;;;25.30;99.90;;;;;;1896583;75;21213;-80
2022/06/18 06:47:07;;;;;;;4.28;3.08;;;25.30;99.90;;;;;;1890369;75;21103;-80
2022/06/18 06:49:58;;;;;;;7.25;3.35;;;25.40;99.90;;;;;;1892715;75;21103;-81
2022/06/18 06:52:50;;;;;;;7.37;3.42;;;25.50;99.90;;;;;;1892884;75;21171;-80
2022/06/18 06:58:51;;;;;;;5.25;3.15;;;25.50;99.90;;;;;;1894669;75;21183;-80
2022/06/18 07:01:42;;;;;;;6.70;3.33;;;25.70;99.90;;;;;;1893334;75;21068;-80
2022/06/18 07:04:33;;;;;;;5.12;4.03;;;25.70;99.90;;;;;;1893633;75;21363;-80
2022/06/18 07:07:25;;;;;;;4.62;2.80;;;25.80;99.90;;;;;;1891425;75;21123;-80
2022/06/18 07:10:17;;;;;;;5.67;3.15;;;25.90;99.90;;;;;;1897632;75;21155;-80
2022/06/18 07:13:09;;;;;;;3.83;2.90;;;25.90;99.90;;;;;;1886925;75;21060;-80
2022/06/18 07:16:00;;;;;;;4.53;2.83;;;26.00;99.90;;;;;;1888822;74;21123;-80
2022/06/18 07:18:53;;;;;;;5.25;3.05;;;26.10;99.90;;;;;;1887637;75;21176;-80
2022/06/18 07:21:44;;;;;;;5.67;3.27;;;26.20;99.90;;;;;;1892104;75;21478;-80
2022/06/18 07:24:35;;;;;;;7.47;3.22;;;26.20;99.90;;;;;;1888473;75;21612;-80
2022/06/18 07:27:29;;;;;;;7.95;3.05;;;26.30;99.90;;;;;;1884708;75;21068;-80
2022/06/18 07:30:20;;;;;;;5.45;3.00;;;26.30;99.90;;;;;;1893631;75;21194;-80
2022/06/18 07:33:15;;;;;;;3.30;3.00;;;26.40;99.90;;;;;;1892143;75;21127;-80
2022/06/18 07:36:07;;;;;;;4.67;2.90;;;26.50;99.90;;;;;;1882885;75;21140;-80
2022/06/18 07:38:58;;;;;;;4.50;3.08;;;26.60;99.90;;;;;;1889592;75;21116;-80
2022/06/18 07:41:53;;;;;;;8.50;3.00;;;26.60;99.90;;;;;;1899007;75;21720;-80
2022/06/18 07:44:45;;;;;;;4.70;3.45;;;26.70;99.90;;;;;;1883420;75;21167;-80
2022/06/18 07:47:37;;;;;;;4.58;3.08;;;26.80;99.90;;;;;;1890259;75;21136;-80
2022/06/18 07:50:30;;;;;;;4.40;3.58;;;26.80;99.90;;;;;;1878801;75;21768;-82
2022/06/18 07:53:24;;;;;;;6.83;2.92;;;26.90;99.90;;;;;;1900586;75;21218;-80
2022/06/18 07:56:16;;;;;;;5.05;3.15;;;26.90;99.90;;;;;;1883873;75;22015;-79
2022/06/18 07:59:08;;;;;;;4.85;3.05;;;27.00;99.90;;;;;;1883471;75;21086;-80
2022/06/18 08:01:59;;;;;;;4.53;3.35;;;27.00;99.90;;;;;;1895808;75;21060;-79
2022/06/18 08:04:51;;;;;;;3.95;3.35;;;27.10;99.90;;;;;;1886012;75;21260;-80
2022/06/18 08:07:42;;;;;;;4.10;3.30;;;27.30;99.90;;;;;;1889420;75;21087;-80
2022/06/18 08:10:38;;;;;;;3.02;2.72;;;27.30;99.90;;;;;;1899270;75;21235;-80
2022/06/18 08:13:29;;;;;;;4.92;3.33;;;27.40;99.90;;;;;;1880899;75;21123;-81
2022/06/18 08:16:21;;;;;;;4.35;3.00;;;27.40;99.90;;;;;;1894634;75;21151;-81
2022/06/18 08:19:13;;;;;;;5.55;3.40;;;27.60;99.90;;;;;;1878246;75;21191;-80
2022/06/18 08:22:06;;;;;;;6.53;3.22;;;27.60;99.90;;;;;;1880718;75;21071;-81
2022/06/18 08:24:59;;;;;;;6.08;2.90;;;27.70;99.90;;;;;;1898884;75;21116;-80
2022/06/18 08:27:51;;;;;;;4.22;3.05;;;27.80;99.90;;;;;;1890685;75;21108;-81
2022/06/18 08:30:42;;;;;;;5.47;3.20;;;27.90;99.90;;;;;;1890208;75;21165;-81
2022/06/18 08:33:34;;;;;;;4.55;3.15;;;28.00;99.90;;;;;;1892994;75;21077;-81
2022/06/18 08:36:26;;;;;;;5.97;3.10;;;28.10;99.90;;;;;;1897895;75;21093;-81
2022/06/18 08:39:17;;;;;;;4.70;2.80;;;28.20;99.90;;;;;;1888470;75;21479;-81
2022/06/18 08:42:19;;;;;;;7.40;3.12;;;28.20;99.90;;;;;;1899174;75;21492;-80
2022/06/18 08:45:25;;;;;;;5.00;3.40;;;28.30;99.90;;;;;;1885217;75;21072;-81
2022/06/18 08:48:41;;;;;;;3.83;3.22;;;28.30;99.90;;;;;;1891412;75;21143;-81
2022/06/18 08:51:37;;;;;;;6.10;3.15;;;28.50;99.90;;;;;;1892549;75;21053;-81
2022/06/18 08:54:38;;;;;;;4.58;3.02;;;28.50;99.90;;;;;;1893381;75;21668;-82
2022/06/18 08:57:32;;;;;;;4.72;3.33;;;28.50;99.90;;;;;;1885984;75;21159;-81
2022/06/18 09:00:28;;;;;;;5.05;3.52;;;28.60;99.90;;;;;;1869040;75;21157;-81
2022/06/18 09:03:23;;;;;;;3.83;3.37;;;28.70;99.90;;;;;;1888224;75;21167;-81
2022/06/18 09:09:06;;;;;;;7.65;3.67;;;28.80;99.90;;;;;;1947926;72;22169;-80
2022/06/18 09:12:20;;;;;;;4.72;3.10;;;28.90;99.90;;;;;;1922813;73;21617;-80
2022/06/18 09:15:36;;;;;;;6.50;3.12;;;29.00;99.90;;;;;;1916739;73;21202;-80
2022/06/18 09:18:30;;;;;;;4.77;3.37;;;29.00;99.90;;;;;;1917115;73;21096;-81
2022/06/18 09:21:44;;;;;;;5.08;3.10;;;29.10;99.90;;;;;;1919516;73;21376;-80
2022/06/18 09:24:39;;;;;;;6.37;3.30;;;29.10;99.90;;;;;;1918358;73;21105;-80
2022/06/18 09:27:37;;;;;;;5.70;3.90;;;29.20;99.90;;;;;;1916815;73;21178;-81
2022/06/18 09:36:05;;;;;;;7.20;3.92;;;29.60;99.90;;;;;;1944755;72;22553;-80
2022/06/18 09:39:19;;;;;;;5.22;3.65;;;29.60;99.90;;;;;;1906571;73;21158;-81
2022/06/18 09:42:34;;;;;;;4.65;3.50;;;29.80;99.90;;;;;;1917591;73;21064;-81
2022/06/18 09:45:29;;;;;;;5.73;3.53;;;29.70;99.90;;;;;;1918288;73;21117;-81
2022/06/18 09:48:40;;;;;;;7.87;3.72;;;29.80;99.90;;;;;;1917043;73;21071;-81
2022/06/18 09:51:35;;;;;;;5.47;3.27;;;30.00;99.90;;;;;;1869133;75;21121;-80
2022/06/18 09:54:29;;;;;;;4.80;3.33;;;30.10;99.90;;;;;;1880506;75;21474;-81
2022/06/18 09:57:23;;;;;;;7.15;3.58;;;30.20;99.90;;;;;;1906650;74;21151;-80
2022/06/18 10:00:19;;;;;;;5.67;3.60;;;30.20;99.90;;;;;;1906473;74;21219;-81
2022/06/18 10:06:52;;;;;;;4.08;3.20;;;30.40;99.90;;;;;;1905902;74;21061;-81
2022/06/18 10:12:14;;;;;;;5.45;3.33;;;30.60;99.60;;;;;;1934375;72;23019;-80
2022/06/18 10:15:26;;;;;;;6.55;3.67;;;30.50;99.20;;;;;;1891803;75;21166;-81
2022/06/18 10:21:28;;;;;;;7.08;3.87;;;30.60;99.30;;;;;;1923151;72;22131;-80
2022/06/18 10:24:43;;;;;;;5.67;4.12;;;30.70;99.20;;;;;;1887906;75;21085;-80
2022/06/18 10:27:59;;;;;;;5.00;3.58;;;30.70;98.70;;;;;;1886791;75;21165;-80
2022/06/18 13:12:50;;;;;;;5.08;3.95;;;34.20;82.70;;;;;;1958162;71;22188;-95
2022/06/18 13:16:03;;;;;;;6.78;4.10;;;34.20;83.00;;;;;;1956330;72;21096;-95
2022/06/18 13:19:19;;;;;;;9.53;4.30;;;34.40;82.90;;;;;;1989849;71;21053;-94
2022/06/18 13:22:12;;;;;;;8.18;3.98;;;34.50;82.80;;;;;;1996923;72;21024;-94
2022/06/18 13:28:36;;;;;;;6.40;4.00;;;34.70;82.20;;;;;;1998492;71;21503;-95
2022/06/18 13:31:32;;;;;;;8.03;4.25;;;34.60;82.50;;;;;;2004110;70;21164;-93
2022/06/18 13:38:02;;;;;;;7.75;4.00;;;34.60;82.20;;;;;;2015319;69;22115;-92
2022/06/18 13:41:16;;;;;;;6.92;4.53;;;34.70;81.80;;;;;;1918551;74;21067;-95
2022/06/18 13:44:39;;;;;;;7.30;3.85;;;34.90;81.60;;;;;;1905132;74;21068;-93
2022/06/18 13:47:36;;;;;;;4.62;4.10;;;34.90;81.30;;;;;;1912622;74;21038;-94
2022/06/18 13:50:49;;;;;;;6.22;4.03;;;35.20;81.30;;;;;;1911740;74;21109;-94
2022/06/18 13:53:43;;;;;;;6.40;4.30;;;35.30;80.50;;;;;;1923931;74;21080;-96
2022/06/18 13:56:37;;;;;;;4.83;4.12;;;35.40;80.30;;;;;;1908101;74;21598;-95
2022/06/18 13:59:31;;;;;;;6.12;4.08;;;35.60;79.70;;;;;;1906225;74;21111;-96
2022/06/18 14:02:30;;;;;;;8.55;4.28;;;35.70;78.90;;;;;;1917249;74;21056;-94
2022/06/18 14:05:25;;;;;;;7.58;4.45;;;35.90;79.00;;;;;;1912310;74;21079;-96
2022/06/18 14:08:30;;;;;;;6.35;4.50;;;36.00;78.40;;;;;;1900911;74;21089;-96
2022/06/18 14:11:37;;;;;;;6.58;4.72;;;36.30;77.80;;;;;;1893973;74;21183;-96
2022/06/18 14:14:33;;;;;;;6.75;4.28;;;36.50;77.20;;;;;;1929565;74;21149;-96
2022/06/18 14:17:31;;;;;;;7.23;4.50;;;36.60;76.60;;;;;;1911997;74;21093;-95
2022/06/18 14:20:30;;;;;;;5.10;4.37;;;36.70;77.00;;;;;;1907672;74;21119;-96
2022/06/18 14:23:30;;;;;;;6.90;4.40;;;36.80;77.10;;;;;;1906114;74;21151;-96
2022/06/18 14:26:23;;;;;;;6.67;4.53;;;37.20;76.20;;;;;;1912304;74;21128;-96
2022/06/18 14:29:15;;;;;;;9.95;4.83;;;37.30;75.30;;;;;;1912071;74;21172;-95
2022/06/18 14:32:15;;;;;;;5.67;4.70;;;37.60;75.30;;;;;;1946710;72;21050;-94
2022/06/18 14:35:18;;;;;;;5.47;4.83;;;37.60;74.20;;;;;;1957380;72;21085;-96
2022/06/18 14:38:34;;;;;;;7.15;5.47;;;37.50;73.90;;;;;;1985262;71;21063;-94
2022/06/18 14:41:38;;;;;;;7.28;5.10;;;37.80;73.30;;;;;;1987611;72;21131;-96
2022/06/18 14:44:50;;;;;;;5.75;5.15;;;37.90;73.20;;;;;;1986076;72;21079;-96
2022/06/18 14:48:01;;;;;;;7.95;5.42;;;38.00;72.90;;;;;;1967357;72;21146;-89
2022/06/18 14:51:23;;;;;;;5.95;5.35;;;38.30;72.60;;;;;;1979293;72;21097;-85
2022/06/18 14:54:43;;;;;;;6.92;5.75;;;38.10;71.90;;;;;;1967462;72;21090;-96
2022/06/18 14:57:46;;;;;;;8.55;5.90;;;38.30;71.80;;;;;;1976670;72;21080;-91
2022/06/18 15:01:01;;;;;;;7.50;6.15;;;38.10;72.10;;;;;;1977908;72;21035;-84
2022/06/18 15:03:57;;;;;;;8.03;5.97;;;38.20;71.50;;;;;;1976486;72;21064;-96
2022/06/18 15:06:49;;;;;;;9.35;6.22;;;38.30;71.40;;;;;;1970777;72;21613;-88
2022/06/18 15:09:42;;;;;;;7.70;6.65;;;38.60;70.70;;;;;;1971172;72;21163;-89
2022/06/18 15:12:37;;;;;;;7.85;6.70;;;38.50;70.50;;;;;;1970651;72;21082;-88
2022/06/18 15:15:43;;;;;;;8.45;6.72;;;38.50;70.20;;;;;;1973675;72;21138;-88
2022/06/18 15:18:33;;;;;;;;;;;38.80;69.90;;;;;;1973396;72;21034;-91
2022/06/18 15:21:31;;;;;;;7.92;6.55;;;39.00;69.50;;;;;;1974534;72;20247;-91
2022/06/18 15:24:23;;;;;;;7.67;6.97;;;38.90;68.70;;;;;;1972961;72;21077;-92
2022/06/18 15:27:12;;;;;;;8.88;6.92;;;38.90;68.90;;;;;;1971689;72;21478;-91
2022/06/18 15:30:08;;;;;;;7.25;6.47;;;38.90;68.20;;;;;;1973233;72;21104;-91
2022/06/18 15:33:02;;;;;;;7.70;6.67;;;39.40;67.80;;;;;;1976085;71;21193;-90
2022/06/18 15:35:56;;;;;;;9.83;6.80;;;39.70;66.70;;;;;;1973339;72;21144;-91
2022/06/18 15:38:57;;;;;;;8.03;6.45;;;40.60;66.60;;;;;;1964071;72;21202;-91
2022/06/18 15:41:51;;;;;;;8.28;6.25;;;41.60;63.90;;;;;;1968535;72;21133;-92
2022/06/18 15:44:45;;;;;;;8.40;6.80;;;41.90;62.90;;;;;;1970847;71;21113;-90
2022/06/18 15:47:37;;;;;;;8.88;6.60;;;42.80;61.80;;;;;;1977223;72;21110;-91
2022/06/18 15:50:32;;;;;;;7.92;6.72;;;42.70;59.30;;;;;;1973223;72;21126;-91
2022/06/18 15:56:09;;;;;;;7.75;6.22;;;42.00;59.10;;;;;;1944445;72;22129;-91
2022/06/18 15:59:24;;;;;;;6.90;6.30;;;42.40;58.20;;;;;;1917563;73;21322;-91
2022/06/18 16:02:34;;;;;;;8.80;6.55;;;43.30;57.10;;;;;;1917217;73;21102;-92
2022/06/18 16:05:29;;;;;;;12.90;6.70;;;43.40;56.30;;;;;;1918847;73;21110;-92
2022/06/18 16:08:43;;;;;;;8.33;6.20;;;43.80;55.50;;;;;;1919559;73;21073;-91
2022/06/18 16:11:39;;;;;;;6.87;5.65;;;43.80;54.90;;;;;;1920570;73;21177;-92
2022/06/18 16:14:31;;;;;;;;;;;43.20;55.10;;;;;;1919843;73;21066;-93
2022/06/18 16:17:25;;;;;;;9.50;5.92;;;41.90;56.30;;;;;;1919476;73;20173;-92
2022/06/18 16:20:24;;;;;;;10.23;5.90;;;41.10;57.00;;;;;;1919414;73;21154;-91
2022/06/18 16:23:20;;;;;;;9.25;6.33;;;41.00;57.30;;;;;;1918303;73;21163;-92
2022/06/18 16:26:12;;;;;;;7.58;5.80;;;41.20;57.50;;;;;;1923024;73;21055;-91
2022/06/18 16:29:04;;;;;;;7.72;5.62;;;40.70;57.80;;;;;;1917462;73;21096;-91
2022/06/18 16:31:55;;;;;;;8.48;5.97;;;40.90;58.00;;;;;;1917556;73;21142;-92
2022/06/18 16:35:03;;;;;;;6.95;5.97;;;41.20;57.20;;;;;;1918485;73;21246;-91
2022/06/18 16:37:54;;;;;;;8.58;6.35;;;40.60;57.60;;;;;;1920976;73;21091;-92
2022/06/18 16:40:52;;;;;;;7.03;6.33;;;39.80;58.50;;;;;;1925119;73;21227;-90
2022/06/18 16:43:45;;;;;;;9.18;6.37;;;38.70;60.00;;;;;;1919240;73;21484;-91
2022/06/18 16:46:38;;;;;;;11.30;6.80;;;38.60;61.20;;;;;;1917856;73;21071;-83
2022/06/18 16:49:31;;;;;;;10.60;6.03;;;38.40;61.20;;;;;;1917413;73;21055;-82
2022/06/18 16:52:23;;;;;;;10.03;6.45;;;37.70;62.20;;;;;;1918162;73;21107;-83
2022/06/18 16:55:19;;;;;;;8.65;6.35;;;37.60;63.20;;;;;;1913173;73;21160;-82
2022/06/18 16:58:13;;;;;;;8.23;6.35;;;37.50;62.90;;;;;;1911682;74;21578;-83
2022/06/18 17:01:06;;;;;;;7.42;6.00;;;37.10;63.70;;;;;;1871407;75;21057;-83
2022/06/18 17:03:58;;;;;;;10.55;6.45;;;36.80;64.70;;;;;;1870099;75;21198;-83
2022/06/18 17:06:50;;;;;;;8.05;6.47;;;36.50;65.50;;;;;;1841840;77;21138;-82
2022/06/18 17:09:44;;;;;;;8.48;6.22;;;37.10;65.30;;;;;;1857231;77;21069;-82
2022/06/18 17:12:36;;;;;;;7.00;6.30;;;37.00;65.20;;;;;;1869777;76;21205;-82
2022/06/18 17:15:28;;;;;;;7.62;6.22;;;37.10;65.70;;;;;;1865631;76;21134;-82
2022/06/18 17:18:20;;;;;;;8.40;6.12;;;37.10;65.90;;;;;;1855206;77;21134;-83
2022/06/18 17:21:12;;;;;;;8.98;6.20;;;37.10;65.90;;;;;;1846967;77;21583;-82
2022/06/18 17:33:55;;;;;;;10.38;6.33;;;36.80;66.00;;;;;;1870221;75;21138;-82
2022/06/18 17:36:46;;;;;;;9.63;6.37;;;36.60;66.70;;;;;;1905462;74;21138;-82
2022/06/18 17:39:39;;;;;;;7.78;6.17;;;36.20;67.30;;;;;;1915954;73;21193;-82
2022/06/18 17:42:32;;;;;;;9.18;6.20;;;36.20;68.10;;;;;;1916788;73;21114;-82
2022/06/18 17:45:23;;;;;;;8.43;6.00;;;36.20;68.30;;;;;;1921207;73;21107;-82
2022/06/18 17:50:57;;;;;;;10.18;6.37;;;35.90;69.80;;;;;;1940574;72;22625;-82
2022/06/18 17:54:07;;;;;;;8.20;5.47;;;35.90;70.20;;;;;;1899371;75;21117;-82
2022/06/18 17:57:17;;;;;;;11.00;5.05;;;35.80;70.30;;;;;;1897837;75;21076;-82
2022/06/18 18:00:11;;;;;;;7.55;5.15;;;35.80;70.00;;;;;;1896398;75;21593;-82
2022/06/18 18:03:24;;;;;;;8.55;4.90;;;36.20;69.80;;;;;;1882399;75;21111;-83
2022/06/18 18:06:21;;;;;;;7.42;4.80;;;36.60;69.00;;;;;;1898138;75;21158;-82
2022/06/18 18:09:12;;;;;;;10.95;5.00;;;36.40;68.00;;;;;;1899951;75;21101;-83
2022/06/18 18:12:06;;;;;;;10.38;4.65;;;36.30;67.20;;;;;;1898022;75;21211;-82
2022/06/18 18:15:00;;;;;;;8.95;3.75;;;35.90;66.50;;;;;;1895209;75;21083;-83
2022/06/18 18:17:57;;;;;;;6.53;4.08;;;35.70;67.00;;;;;;1857742;76;21522;-82
2022/06/18 18:20:51;;;;;;;8.73;4.08;;;35.60;66.70;;;;;;1903228;75;21064;-82
2022/06/18 18:23:43;;;;;;;9.65;4.22;;;35.50;67.70;;;;;;1903089;75;21174;-82
2022/06/18 18:26:35;;;;;;;9.80;4.08;;;35.40;69.20;;;;;;1895784;75;21056;-83
2022/06/18 18:29:27;;;;;;;19.67;6.20;;;34.70;73.00;;;;;;1895879;75;21064;-82
2022/06/18 18:32:20;;;;;;;15.10;5.33;;;34.10;77.40;;;;;;1894655;75;21161;-83
2022/06/18 18:35:15;;;;;;;13.35;5.20;;;33.20;83.90;;;;;;1898707;75;21092;-83
2022/06/18 18:38:08;;;;;;;12.07;4.97;;;32.10;88.90;;;;;;1900069;75;21135;-83
2022/06/18 18:41:01;;;;;;;11.80;5.60;;;31.40;92.10;;;;;;1896437;75;21108;-82
2022/06/18 18:43:54;;;;;;;8.15;4.00;;;31.10;93.80;;;;;;1897582;75;21070;-82
2022/06/18 18:46:45;;;;;;;9.85;4.35;;;30.60;95.50;;;;;;1901603;75;21150;-83
2022/06/18 18:49:38;;;;;;;11.97;4.65;;;30.00;98.90;;;;;;1899675;74;21109;-83
2022/06/18 18:52:29;;;;;;;12.73;6.20;;;29.80;99.90;;;;;;1852156;76;21121;-82
2022/06/18 18:55:21;;;;;;;13.93;3.95;;;29.80;99.90;;;;;;1903170;75;21178;-82
2022/06/18 18:58:13;;;;;;;9.80;4.47;;;29.70;99.90;;;;;;1874738;76;21770;-83